KFCH/FCH METAR and TAF weather

Enter ICAO airport designator
Station Type Date Time Source
KFCH METAR 2020/02/24 09:50 UTC NOAA

KFCH 240950Z AUTO 00000KT 10SM 09/08 A3034 RMK A01


Station Type Date Time Source
KFCH Decoded METAR 2020/02/24 09:50 UTC NOAA

Fresno-Chandler, CA, United States (KFCH) 36-44N 119-49W
Feb 24, 2020 - 04:50 AM EST / 2020.02.24 0950 UTC
Wind: Calm:0
Visibility: 10 mile(s):0
Temperature: 48 F (9 C)
Dew Point: 46 F (8 C)
Relative Humidity: 93%
Pressure (altimeter): 30.34 in. Hg (1027 hPa)
ob: KFCH 240950Z AUTO 00000KT 10SM 09/08 A3034 RMK A01
cycle: 10

Station Type Date Time Source
KFCH TAF UTC NOAA

Error!

Example: see airport list